sensor_id;sensor_type;location;lat;lon;timestamp;P1;durP1;ratioP1;P2;durP2;ratioP2
6679;SDS011;3376;42.664;23.346;2023-06-22T00:02:03;12.10;;;11.30;;
6679;SDS011;3376;42.664;23.346;2023-06-22T00:04:30;11.30;;;10.50;;
6679;SDS011;3376;42.664;23.346;2023-06-22T00:06:57;11.43;;;10.57;;
6679;SDS011;3376;42.664;23.346;2023-06-22T00:09:24;11.97;;;10.73;;
6679;SDS011;3376;42.664;23.346;2023-06-22T00:11:50;10.53;;;9.97;;
6679;SDS011;3376;42.664;23.346;2023-06-22T00:14:18;12.13;;;11.10;;
6679;SDS011;3376;42.664;23.346;2023-06-22T00:16:45;11.23;;;10.53;;
6679;SDS011;3376;42.664;23.346;2023-06-22T00:19:13;10.77;;;10.27;;
6679;SDS011;3376;42.664;23.346;2023-06-22T00:21:40;12.13;;;11.17;;
6679;SDS011;3376;42.664;23.346;2023-06-22T00:24:07;11.47;;;10.80;;
6679;SDS011;3376;42.664;23.346;2023-06-22T00:26:34;10.70;;;9.80;;
6679;SDS011;3376;42.664;23.346;2023-06-22T00:29:01;11.73;;;10.77;;
6679;SDS011;3376;42.664;23.346;2023-06-22T00:31:29;14.57;;;13.50;;
6679;SDS011;3376;42.664;23.346;2023-06-22T00:33:56;12.03;;;11.10;;
6679;SDS011;3376;42.664;23.346;2023-06-22T00:36:23;11.20;;;10.50;;
6679;SDS011;3376;42.664;23.346;2023-06-22T00:38:50;12.23;;;11.10;;
6679;SDS011;3376;42.664;23.346;2023-06-22T00:41:17;11.17;;;10.33;;
6679;SDS011;3376;42.664;23.346;2023-06-22T00:43:43;11.53;;;10.90;;
6679;SDS011;3376;42.664;23.346;2023-06-22T00:46:11;11.27;;;10.57;;
6679;SDS011;3376;42.664;23.346;2023-06-22T00:48:40;11.40;;;10.47;;
6679;SDS011;3376;42.664;23.346;2023-06-22T00:51:09;12.53;;;11.43;;
6679;SDS011;3376;42.664;23.346;2023-06-22T00:53:37;12.13;;;10.87;;
6679;SDS011;3376;42.664;23.346;2023-06-22T00:56:04;12.53;;;11.37;;
6679;SDS011;3376;42.664;23.346;2023-06-22T00:58:31;11.83;;;10.93;;
6679;SDS011;3376;42.664;23.346;2023-06-22T01:00:58;11.60;;;10.80;;
6679;SDS011;3376;42.664;23.346;2023-06-22T01:03:26;11.73;;;11.03;;
6679;SDS011;3376;42.664;23.346;2023-06-22T01:05:54;11.70;;;11.10;;
6679;SDS011;3376;42.664;23.346;2023-06-22T01:08:35;11.13;;;10.43;;
6679;SDS011;3376;42.664;23.346;2023-06-22T01:11:10;10.80;;;10.20;;
6679;SDS011;3376;42.664;23.346;2023-06-22T01:13:44;11.50;;;10.67;;
6679;SDS011;3376;42.664;23.346;2023-06-22T01:16:16;12.40;;;11.50;;
6679;SDS011;3376;42.664;23.346;2023-06-22T01:18:46;12.10;;;11.30;;
6679;SDS011;3376;42.664;23.346;2023-06-22T01:21:19;11.33;;;10.60;;
6679;SDS011;3376;42.664;23.346;2023-06-22T01:23:50;10.63;;;10.23;;
6679;SDS011;3376;42.664;23.346;2023-06-22T01:26:28;10.57;;;9.97;;
6679;SDS011;3376;42.664;23.346;2023-06-22T01:29:05;9.80;;;9.20;;
6679;SDS011;3376;42.664;23.346;2023-06-22T01:31:33;9.63;;;9.00;;
6679;SDS011;3376;42.664;23.346;2023-06-22T01:34:01;11.23;;;10.53;;
6679;SDS011;3376;42.664;23.346;2023-06-22T01:36:30;11.03;;;10.23;;
6679;SDS011;3376;42.664;23.346;2023-06-22T01:38:59;9.67;;;9.23;;
6679;SDS011;3376;42.664;23.346;2023-06-22T01:41:27;10.10;;;9.17;;
6679;SDS011;3376;42.664;23.346;2023-06-22T01:43:56;10.13;;;9.53;;
6679;SDS011;3376;42.664;23.346;2023-06-22T01:46:24;10.60;;;9.77;;
6679;SDS011;3376;42.664;23.346;2023-06-22T01:48:51;11.80;;;11.00;;
6679;SDS011;3376;42.664;23.346;2023-06-22T01:51:19;10.27;;;9.80;;
6679;SDS011;3376;42.664;23.346;2023-06-22T01:53:46;10.60;;;9.73;;
6679;SDS011;3376;42.664;23.346;2023-06-22T01:56:15;10.30;;;9.80;;
6679;SDS011;3376;42.664;23.346;2023-06-22T01:58:45;11.80;;;11.17;;
6679;SDS011;3376;42.664;23.346;2023-06-22T02:01:17;10.33;;;9.70;;
6679;SDS011;3376;42.664;23.346;2023-06-22T02:03:53;11.47;;;10.90;;
6679;SDS011;3376;42.664;23.346;2023-06-22T02:06:27;10.33;;;9.73;;
6679;SDS011;3376;42.664;23.346;2023-06-22T02:09:01;10.83;;;10.33;;
6679;SDS011;3376;42.664;23.346;2023-06-22T02:11:32;13.17;;;10.20;;
6679;SDS011;3376;42.664;23.346;2023-06-22T02:14:01;10.97;;;10.47;;
6679;SDS011;3376;42.664;23.346;2023-06-22T02:16:28;11.03;;;10.27;;
6679;SDS011;3376;42.664;23.346;2023-06-22T02:18:59;12.13;;;11.13;;
6679;SDS011;3376;42.664;23.346;2023-06-22T02:21:29;11.37;;;10.50;;
6679;SDS011;3376;42.664;23.346;2023-06-22T02:23:56;11.73;;;11.07;;
6679;SDS011;3376;42.664;23.346;2023-06-22T02:26:23;11.33;;;10.43;;
6679;SDS011;3376;42.664;23.346;2023-06-22T02:28:52;12.07;;;10.97;;
6679;SDS011;3376;42.664;23.346;2023-06-22T02:31:19;10.70;;;10.10;;
6679;SDS011;3376;42.664;23.346;2023-06-22T02:33:46;12.57;;;11.60;;
6679;SDS011;3376;42.664;23.346;2023-06-22T02:36:15;13.00;;;11.93;;
6679;SDS011;3376;42.664;23.346;2023-06-22T02:38:41;11.47;;;10.83;;
6679;SDS011;3376;42.664;23.346;2023-06-22T02:41:13;12.57;;;11.67;;
6679;SDS011;3376;42.664;23.346;2023-06-22T02:43:43;10.93;;;10.40;;
6679;SDS011;3376;42.664;23.346;2023-06-22T02:46:10;12.30;;;11.43;;
6679;SDS011;3376;42.664;23.346;2023-06-22T02:48:38;11.17;;;10.47;;
6679;SDS011;3376;42.664;23.346;2023-06-22T02:51:05;11.37;;;10.57;;
6679;SDS011;3376;42.664;23.346;2023-06-22T02:53:33;11.23;;;10.63;;
6679;SDS011;3376;42.664;23.346;2023-06-22T02:56:00;11.47;;;10.73;;
6679;SDS011;3376;42.664;23.346;2023-06-22T02:58:28;10.83;;;10.13;;
6679;SDS011;3376;42.664;23.346;2023-06-22T03:00:55;11.63;;;11.03;;
6679;SDS011;3376;42.664;23.346;2023-06-22T03:03:21;11.30;;;10.43;;
6679;SDS011;3376;42.664;23.346;2023-06-22T03:05:51;11.97;;;11.00;;
6679;SDS011;3376;42.664;23.346;2023-06-22T03:08:18;12.53;;;11.60;;
6679;SDS011;3376;42.664;23.346;2023-06-22T03:10:46;12.10;;;11.07;;
6679;SDS011;3376;42.664;23.346;2023-06-22T03:13:13;9.90;;;9.43;;
6679;SDS011;3376;42.664;23.346;2023-06-22T03:15:39;11.53;;;10.97;;
6679;SDS011;3376;42.664;23.346;2023-06-22T03:18:06;11.13;;;9.90;;
6679;SDS011;3376;42.664;23.346;2023-06-22T03:20:33;11.67;;;10.90;;
6679;SDS011;3376;42.664;23.346;2023-06-22T03:23:00;11.20;;;10.50;;
6679;SDS011;3376;42.664;23.346;2023-06-22T03:25:27;11.57;;;10.93;;
6679;SDS011;3376;42.664;23.346;2023-06-22T03:27:55;11.30;;;10.57;;
6679;SDS011;3376;42.664;23.346;2023-06-22T03:30:21;10.73;;;9.93;;
6679;SDS011;3376;42.664;23.346;2023-06-22T03:32:48;10.87;;;9.97;;
6679;SDS011;3376;42.664;23.346;2023-06-22T03:35:15;12.07;;;10.87;;
6679;SDS011;3376;42.664;23.346;2023-06-22T03:37:42;11.40;;;10.63;;
6679;SDS011;3376;42.664;23.346;2023-06-22T03:40:09;12.07;;;10.63;;
6679;SDS011;3376;42.664;23.346;2023-06-22T03:42:36;10.40;;;9.87;;
6679;SDS011;3376;42.664;23.346;2023-06-22T03:45:05;12.00;;;11.17;;
6679;SDS011;3376;42.664;23.346;2023-06-22T03:47:32;11.30;;;10.47;;
6679;SDS011;3376;42.664;23.346;2023-06-22T03:49:59;12.23;;;11.53;;
6679;SDS011;3376;42.664;23.346;2023-06-22T03:52:28;11.73;;;10.97;;
6679;SDS011;3376;42.664;23.346;2023-06-22T03:54:55;11.47;;;10.50;;
6679;SDS011;3376;42.664;23.346;2023-06-22T03:57:22;11.30;;;10.60;;
6679;SDS011;3376;42.664;23.346;2023-06-22T03:59:48;12.00;;;11.37;;
6679;SDS011;3376;42.664;23.346;2023-06-22T04:02:17;12.73;;;11.87;;
6679;SDS011;3376;42.664;23.346;2023-06-22T04:04:43;12.63;;;10.97;;
6679;SDS011;3376;42.664;23.346;2023-06-22T04:07:10;11.53;;;10.80;;
6679;SDS011;3376;42.664;23.346;2023-06-22T04:09:37;13.90;;;12.57;;
6679;SDS011;3376;42.664;23.346;2023-06-22T04:12:04;11.77;;;11.07;;
6679;SDS011;3376;42.664;23.346;2023-06-22T04:14:31;13.43;;;12.27;;
6679;SDS011;3376;42.664;23.346;2023-06-22T04:16:58;13.07;;;12.07;;
6679;SDS011;3376;42.664;23.346;2023-06-22T04:19:26;13.10;;;12.20;;
6679;SDS011;3376;42.664;23.346;2023-06-22T04:21:53;13.50;;;12.30;;
6679;SDS011;3376;42.664;23.346;2023-06-22T04:24:20;14.67;;;13.53;;
6679;SDS011;3376;42.664;23.346;2023-06-22T04:26:47;13.77;;;12.70;;
6679;SDS011;3376;42.664;23.346;2023-06-22T04:29:14;14.73;;;13.83;;
6679;SDS011;3376;42.664;23.346;2023-06-22T04:31:40;14.20;;;13.20;;
6679;SDS011;3376;42.664;23.346;2023-06-22T04:34:07;14.57;;;13.37;;
6679;SDS011;3376;42.664;23.346;2023-06-22T04:36:36;13.77;;;12.87;;
6679;SDS011;3376;42.664;23.346;2023-06-22T04:39:04;17.20;;;14.20;;
6679;SDS011;3376;42.664;23.346;2023-06-22T04:41:35;14.63;;;13.57;;
6679;SDS011;3376;42.664;23.346;2023-06-22T04:44:11;14.20;;;13.20;;
6679;SDS011;3376;42.664;23.346;2023-06-22T04:46:38;15.03;;;13.60;;
6679;SDS011;3376;42.664;23.346;2023-06-22T04:49:06;13.73;;;12.73;;
6679;SDS011;3376;42.664;23.346;2023-06-22T04:51:38;13.70;;;12.50;;
6679;SDS011;3376;42.664;23.346;2023-06-22T04:54:06;14.80;;;13.37;;
6679;SDS011;3376;42.664;23.346;2023-06-22T04:56:33;14.67;;;13.87;;
6679;SDS011;3376;42.664;23.346;2023-06-22T04:59:01;13.97;;;12.97;;
6679;SDS011;3376;42.664;23.346;2023-06-22T05:01:28;14.87;;;13.97;;
6679;SDS011;3376;42.664;23.346;2023-06-22T05:03:56;15.87;;;14.20;;
6679;SDS011;3376;42.664;23.346;2023-06-22T05:06:26;14.30;;;12.93;;
6679;SDS011;3376;42.664;23.346;2023-06-22T05:08:55;16.93;;;14.47;;
6679;SDS011;3376;42.664;23.346;2023-06-22T05:11:24;15.70;;;14.40;;
6679;SDS011;3376;42.664;23.346;2023-06-22T05:13:51;14.90;;;13.60;;
6679;SDS011;3376;42.664;23.346;2023-06-22T05:16:18;14.20;;;12.97;;
6679;SDS011;3376;42.664;23.346;2023-06-22T05:18:49;15.53;;;14.43;;
6679;SDS011;3376;42.664;23.346;2023-06-22T05:21:16;15.40;;;14.13;;
6679;SDS011;3376;42.664;23.346;2023-06-22T05:23:44;14.70;;;13.57;;
6679;SDS011;3376;42.664;23.346;2023-06-22T05:26:12;14.27;;;13.10;;
6679;SDS011;3376;42.664;23.346;2023-06-22T05:28:39;14.90;;;13.60;;
6679;SDS011;3376;42.664;23.346;2023-06-22T05:31:05;14.43;;;13.40;;
6679;SDS011;3376;42.664;23.346;2023-06-22T05:33:32;13.77;;;12.87;;
6679;SDS011;3376;42.664;23.346;2023-06-22T05:35:59;12.87;;;11.87;;
6679;SDS011;3376;42.664;23.346;2023-06-22T05:38:26;17.57;;;13.40;;
6679;SDS011;3376;42.664;23.346;2023-06-22T05:40:53;14.03;;;12.83;;
6679;SDS011;3376;42.664;23.346;2023-06-22T05:43:21;14.37;;;13.10;;
6679;SDS011;3376;42.664;23.346;2023-06-22T05:45:48;13.63;;;12.67;;
6679;SDS011;3376;42.664;23.346;2023-06-22T05:48:14;13.30;;;12.23;;
6679;SDS011;3376;42.664;23.346;2023-06-22T05:50:41;14.57;;;13.33;;
6679;SDS011;3376;42.664;23.346;2023-06-22T05:53:08;12.67;;;11.67;;
6679;SDS011;3376;42.664;23.346;2023-06-22T05:55:35;15.57;;;11.63;;
6679;SDS011;3376;42.664;23.346;2023-06-22T05:58:02;13.27;;;12.37;;
6679;SDS011;3376;42.664;23.346;2023-06-22T06:00:30;13.77;;;12.73;;
6679;SDS011;3376;42.664;23.346;2023-06-22T06:02:58;14.67;;;13.03;;
6679;SDS011;3376;42.664;23.346;2023-06-22T06:05:28;71.73;;;31.60;;
6679;SDS011;3376;42.664;23.346;2023-06-22T06:07:55;17.70;;;15.73;;
6679;SDS011;3376;42.664;23.346;2023-06-22T06:10:22;14.97;;;13.53;;
6679;SDS011;3376;42.664;23.346;2023-06-22T06:12:49;57.03;;;27.67;;
6679;SDS011;3376;42.664;23.346;2023-06-22T06:15:16;24.40;;;18.00;;
6679;SDS011;3376;42.664;23.346;2023-06-22T06:17:48;36.90;;;22.33;;
6679;SDS011;3376;42.664;23.346;2023-06-22T06:20:15;17.60;;;14.60;;
6679;SDS011;3376;42.664;23.346;2023-06-22T06:22:42;43.77;;;25.90;;
6679;SDS011;3376;42.664;23.346;2023-06-22T06:25:09;23.83;;;16.83;;
6679;SDS011;3376;42.664;23.346;2023-06-22T06:27:41;18.70;;;14.90;;
6679;SDS011;3376;42.664;23.346;2023-06-22T06:30:08;28.07;;;16.47;;
6679;SDS011;3376;42.664;23.346;2023-06-22T06:32:36;40.57;;;21.87;;
6679;SDS011;3376;42.664;23.346;2023-06-22T06:35:05;20.90;;;16.17;;
6679;SDS011;3376;42.664;23.346;2023-06-22T06:37:34;29.55;;;19.92;;
6679;SDS011;3376;42.664;23.346;2023-06-22T06:40:02;13.77;;;12.57;;
6679;SDS011;3376;42.664;23.346;2023-06-22T06:42:31;12.73;;;11.45;;
6679;SDS011;3376;42.664;23.346;2023-06-22T06:44:58;14.27;;;13.27;;
6679;SDS011;3376;42.664;23.346;2023-06-22T06:47:25;15.40;;;13.20;;
6679;SDS011;3376;42.664;23.346;2023-06-22T06:49:52;21.95;;;16.60;;
6679;SDS011;3376;42.664;23.346;2023-06-22T06:52:20;15.55;;;14.23;;
6679;SDS011;3376;42.664;23.346;2023-06-22T06:54:46;16.80;;;12.00;;
6679;SDS011;3376;42.664;23.346;2023-06-22T06:57:13;15.95;;;14.38;;
6679;SDS011;3376;42.664;23.346;2023-06-22T06:59:40;18.00;;;14.25;;
6679;SDS011;3376;42.664;23.346;2023-06-22T07:02:07;13.73;;;12.00;;
6679;SDS011;3376;42.664;23.346;2023-06-22T07:04:34;12.45;;;11.30;;
6679;SDS011;3376;42.664;23.346;2023-06-22T07:07:03;16.50;;;14.02;;
6679;SDS011;3376;42.664;23.346;2023-06-22T07:09:32;13.82;;;12.50;;
6679;SDS011;3376;42.664;23.346;2023-06-22T07:11:59;13.48;;;12.27;;
6679;SDS011;3376;42.664;23.346;2023-06-22T07:14:25;18.02;;;13.27;;
6679;SDS011;3376;42.664;23.346;2023-06-22T07:16:52;13.18;;;12.18;;
6679;SDS011;3376;42.664;23.346;2023-06-22T07:19:23;13.65;;;12.68;;
6679;SDS011;3376;42.664;23.346;2023-06-22T07:21:51;12.15;;;11.35;;
6679;SDS011;3376;42.664;23.346;2023-06-22T07:24:18;12.57;;;11.40;;
6679;SDS011;3376;42.664;23.346;2023-06-22T07:26:47;12.02;;;11.15;;
6679;SDS011;3376;42.664;23.346;2023-06-22T07:29:15;12.80;;;11.50;;
6679;SDS011;3376;42.664;23.346;2023-06-22T07:31:42;13.23;;;11.90;;
6679;SDS011;3376;42.664;23.346;2023-06-22T07:34:09;11.65;;;10.90;;
6679;SDS011;3376;42.664;23.346;2023-06-22T07:36:35;12.88;;;11.50;;
6679;SDS011;3376;42.664;23.346;2023-06-22T07:39:02;11.52;;;10.88;;
6679;SDS011;3376;42.664;23.346;2023-06-22T07:41:29;11.52;;;10.82;;
6679;SDS011;3376;42.664;23.346;2023-06-22T07:43:58;13.00;;;11.68;;
6679;SDS011;3376;42.664;23.346;2023-06-22T07:46:24;10.60;;;9.90;;
6679;SDS011;3376;42.664;23.346;2023-06-22T07:48:51;12.38;;;11.55;;
6679;SDS011;3376;42.664;23.346;2023-06-22T07:51:18;11.27;;;10.63;;
6679;SDS011;3376;42.664;23.346;2023-06-22T07:53:45;11.30;;;10.65;;
6679;SDS011;3376;42.664;23.346;2023-06-22T07:56:12;10.52;;;10.02;;
6679;SDS011;3376;42.664;23.346;2023-06-22T07:58:43;12.32;;;10.18;;
6679;SDS011;3376;42.664;23.346;2023-06-22T08:01:12;11.82;;;11.05;;
6679;SDS011;3376;42.664;23.346;2023-06-22T08:03:39;11.90;;;11.05;;
6679;SDS011;3376;42.664;23.346;2023-06-22T08:06:05;13.93;;;11.13;;
6679;SDS011;3376;42.664;23.346;2023-06-22T08:08:34;12.50;;;11.50;;
6679;SDS011;3376;42.664;23.346;2023-06-22T08:11:01;12.07;;;11.38;;
6679;SDS011;3376;42.664;23.346;2023-06-22T08:13:27;11.90;;;11.07;;
6679;SDS011;3376;42.664;23.346;2023-06-22T08:15:54;11.73;;;10.63;;
6679;SDS011;3376;42.664;23.346;2023-06-22T08:18:23;11.30;;;10.55;;
6679;SDS011;3376;42.664;23.346;2023-06-22T08:20:49;11.43;;;10.65;;
6679;SDS011;3376;42.664;23.346;2023-06-22T08:23:16;10.82;;;10.32;;
6679;SDS011;3376;42.664;23.346;2023-06-22T08:25:43;11.60;;;10.90;;
6679;SDS011;3376;42.664;23.346;2023-06-22T08:28:10;12.52;;;11.38;;
6679;SDS011;3376;42.664;23.346;2023-06-22T08:30:38;11.35;;;10.57;;
6679;SDS011;3376;42.664;23.346;2023-06-22T08:33:04;10.93;;;10.07;;
6679;SDS011;3376;42.664;23.346;2023-06-22T08:35:33;11.38;;;10.63;;
6679;SDS011;3376;42.664;23.346;2023-06-22T08:37:59;11.25;;;10.27;;
6679;SDS011;3376;42.664;23.346;2023-06-22T08:40:27;12.57;;;11.90;;
6679;SDS011;3376;42.664;23.346;2023-06-22T08:42:54;12.45;;;11.45;;
6679;SDS011;3376;42.664;23.346;2023-06-22T08:45:21;11.90;;;10.93;;
6679;SDS011;3376;42.664;23.346;2023-06-22T08:47:48;12.93;;;11.75;;
6679;SDS011;3376;42.664;23.346;2023-06-22T08:50:14;12.45;;;11.05;;
6679;SDS011;3376;42.664;23.346;2023-06-22T08:52:42;12.65;;;10.68;;
6679;SDS011;3376;42.664;23.346;2023-06-22T08:55:10;10.55;;;9.95;;
6679;SDS011;3376;42.664;23.346;2023-06-22T08:57:37;14.05;;;12.98;;
6679;SDS011;3376;42.664;23.346;2023-06-22T09:00:05;11.25;;;10.38;;
6679;SDS011;3376;42.664;23.346;2023-06-22T09:02:41;13.25;;;12.32;;
6679;SDS011;3376;42.664;23.346;2023-06-22T09:05:09;9.30;;;8.80;;
6679;SDS011;3376;42.664;23.346;2023-06-22T09:07:35;10.07;;;9.50;;
6679;SDS011;3376;42.664;23.346;2023-06-22T09:10:04;10.43;;;9.70;;
6679;SDS011;3376;42.664;23.346;2023-06-22T09:12:31;9.68;;;9.02;;
6679;SDS011;3376;42.664;23.346;2023-06-22T09:14:59;9.70;;;8.65;;
6679;SDS011;3376;42.664;23.346;2023-06-22T09:17:26;8.90;;;8.40;;
6679;SDS011;3376;42.664;23.346;2023-06-22T09:19:53;9.30;;;8.88;;
6679;SDS011;3376;42.664;23.346;2023-06-22T09:22:20;8.98;;;8.30;;
6679;SDS011;3376;42.664;23.346;2023-06-22T09:24:47;9.15;;;8.85;;
6679;SDS011;3376;42.664;23.346;2023-06-22T09:27:15;9.48;;;9.13;;
6679;SDS011;3376;42.664;23.346;2023-06-22T09:29:42;8.95;;;8.60;;
6679;SDS011;3376;42.664;23.346;2023-06-22T09:32:08;8.98;;;8.63;;
6679;SDS011;3376;42.664;23.346;2023-06-22T09:34:35;8.88;;;8.25;;
6679;SDS011;3376;42.664;23.346;2023-06-22T09:37:02;8.45;;;7.93;;
6679;SDS011;3376;42.664;23.346;2023-06-22T09:39:29;10.25;;;9.75;;
6679;SDS011;3376;42.664;23.346;2023-06-22T09:41:57;12.80;;;11.75;;
6679;SDS011;3376;42.664;23.346;2023-06-22T09:44:25;11.32;;;10.48;;
6679;SDS011;3376;42.664;23.346;2023-06-22T09:46:52;9.30;;;8.75;;
6679;SDS011;3376;42.664;23.346;2023-06-22T09:49:19;8.75;;;8.45;;
6679;SDS011;3376;42.664;23.346;2023-06-22T09:51:46;9.70;;;9.40;;
6679;SDS011;3376;42.664;23.346;2023-06-22T09:54:13;9.77;;;9.27;;
6679;SDS011;3376;42.664;23.346;2023-06-22T09:56:39;11.00;;;10.60;;
6679;SDS011;3376;42.664;23.346;2023-06-22T09:59:06;13.48;;;9.65;;
6679;SDS011;3376;42.664;23.346;2023-06-22T10:01:34;11.80;;;11.00;;
6679;SDS011;3376;42.664;23.346;2023-06-22T10:04:01;10.93;;;10.13;;
6679;SDS011;3376;42.664;23.346;2023-06-22T10:06:28;11.50;;;10.50;;
6679;SDS011;3376;42.664;23.346;2023-06-22T10:08:55;10.88;;;10.32;;
6679;SDS011;3376;42.664;23.346;2023-06-22T10:11:22;10.23;;;9.60;;
6679;SDS011;3376;42.664;23.346;2023-06-22T10:13:54;10.35;;;9.75;;
6679;SDS011;3376;42.664;23.346;2023-06-22T10:16:20;10.00;;;9.20;;
6679;SDS011;3376;42.664;23.346;2023-06-22T10:18:49;10.38;;;9.65;;
6679;SDS011;3376;42.664;23.346;2023-06-22T10:21:15;10.40;;;10.00;;
6679;SDS011;3376;42.664;23.346;2023-06-22T10:23:42;10.00;;;9.18;;
6679;SDS011;3376;42.664;23.346;2023-06-22T10:26:09;9.75;;;9.35;;
6679;SDS011;3376;42.664;23.346;2023-06-22T10:28:35;9.73;;;9.32;;
6679;SDS011;3376;42.664;23.346;2023-06-22T10:31:02;9.32;;;8.60;;
6679;SDS011;3376;42.664;23.346;2023-06-22T10:33:29;9.25;;;8.75;;
6679;SDS011;3376;42.664;23.346;2023-06-22T10:35:57;10.50;;;9.93;;
6679;SDS011;3376;42.664;23.346;2023-06-22T10:38:24;10.50;;;10.00;;
6679;SDS011;3376;42.664;23.346;2023-06-22T10:40:51;8.40;;;8.00;;
6679;SDS011;3376;42.664;23.346;2023-06-22T10:43:17;9.52;;;9.13;;
6679;SDS011;3376;42.664;23.346;2023-06-22T10:45:45;9.70;;;9.27;;
6679;SDS011;3376;42.664;23.346;2023-06-22T10:48:11;9.35;;;8.88;;
6679;SDS011;3376;42.664;23.346;2023-06-22T10:50:38;10.00;;;9.60;;
6679;SDS011;3376;42.664;23.346;2023-06-22T10:53:06;9.13;;;8.82;;
6679;SDS011;3376;42.664;23.346;2023-06-22T10:55:33;12.30;;;11.52;;
6679;SDS011;3376;42.664;23.346;2023-06-22T10:58:00;10.88;;;10.18;;
6679;SDS011;3376;42.664;23.346;2023-06-22T11:00:27;11.05;;;10.38;;
6679;SDS011;3376;42.664;23.346;2023-06-22T11:02:53;10.27;;;9.77;;
6679;SDS011;3376;42.664;23.346;2023-06-22T11:05:20;10.25;;;9.75;;
6679;SDS011;3376;42.664;23.346;2023-06-22T11:07:47;9.93;;;9.43;;
6679;SDS011;3376;42.664;23.346;2023-06-22T11:10:16;10.50;;;9.85;;
6679;SDS011;3376;42.664;23.346;2023-06-22T11:12:43;10.85;;;10.43;;
6679;SDS011;3376;42.664;23.346;2023-06-22T11:15:09;10.23;;;9.55;;
6679;SDS011;3376;42.664;23.346;2023-06-22T11:17:36;10.55;;;9.57;;
6679;SDS011;3376;42.664;23.346;2023-06-22T11:20:03;10.38;;;9.75;;
6679;SDS011;3376;42.664;23.346;2023-06-22T11:22:35;8.98;;;8.23;;
6679;SDS011;3376;42.664;23.346;2023-06-22T11:25:02;9.30;;;8.80;;
6679;SDS011;3376;42.664;23.346;2023-06-22T11:27:31;9.45;;;8.88;;
6679;SDS011;3376;42.664;23.346;2023-06-22T11:29:58;9.45;;;8.75;;
6679;SDS011;3376;42.664;23.346;2023-06-22T11:32:25;9.45;;;8.95;;
6679;SDS011;3376;42.664;23.346;2023-06-22T11:34:52;9.07;;;8.68;;
6679;SDS011;3376;42.664;23.346;2023-06-22T11:37:19;9.20;;;8.77;;
6679;SDS011;3376;42.664;23.346;2023-06-22T11:39:47;9.23;;;8.35;;
6679;SDS011;3376;42.664;23.346;2023-06-22T11:42:14;9.35;;;8.75;;
6679;SDS011;3376;42.664;23.346;2023-06-22T11:44:42;10.68;;;10.10;;
6679;SDS011;3376;42.664;23.346;2023-06-22T11:47:10;9.02;;;8.52;;
6679;SDS011;3376;42.664;23.346;2023-06-22T11:49:37;9.75;;;9.25;;
6679;SDS011;3376;42.664;23.346;2023-06-22T11:52:04;9.27;;;8.75;;
6679;SDS011;3376;42.664;23.346;2023-06-22T11:54:31;8.73;;;8.20;;
6679;SDS011;3376;42.664;23.346;2023-06-22T11:56:58;8.35;;;8.05;;
6679;SDS011;3376;42.664;23.346;2023-06-22T11:59:25;8.50;;;7.95;;
6679;SDS011;3376;42.664;23.346;2023-06-22T12:01:53;9.52;;;8.95;;
6679;SDS011;3376;42.664;23.346;2023-06-22T12:04:20;7.55;;;7.10;;
6679;SDS011;3376;42.664;23.346;2023-06-22T12:06:47;17.60;;;16.20;;
6679;SDS011;3376;42.664;23.346;2023-06-22T12:09:14;9.98;;;9.18;;
6679;SDS011;3376;42.664;23.346;2023-06-22T12:11:41;8.73;;;8.23;;
6679;SDS011;3376;42.664;23.346;2023-06-22T12:14:07;9.57;;;8.68;;
6679;SDS011;3376;42.664;23.346;2023-06-22T12:16:34;9.00;;;8.52;;
6679;SDS011;3376;42.664;23.346;2023-06-22T12:19:02;7.57;;;7.18;;
6679;SDS011;3376;42.664;23.346;2023-06-22T12:21:29;8.68;;;8.07;;
6679;SDS011;3376;42.664;23.346;2023-06-22T12:23:56;9.77;;;7.82;;
6679;SDS011;3376;42.664;23.346;2023-06-22T12:26:23;9.30;;;8.90;;
6679;SDS011;3376;42.664;23.346;2023-06-22T12:28:50;10.13;;;9.02;;
6679;SDS011;3376;42.664;23.346;2023-06-22T12:31:16;9.70;;;9.10;;
6679;SDS011;3376;42.664;23.346;2023-06-22T12:33:43;8.90;;;8.40;;
6679;SDS011;3376;42.664;23.346;2023-06-22T12:36:11;11.30;;;9.10;;
6679;SDS011;3376;42.664;23.346;2023-06-22T12:38:38;8.70;;;8.30;;
6679;SDS011;3376;42.664;23.346;2023-06-22T12:41:05;9.48;;;8.68;;
6679;SDS011;3376;42.664;23.346;2023-06-22T12:43:32;9.30;;;8.80;;
6679;SDS011;3376;42.664;23.346;2023-06-22T12:45:58;9.43;;;8.70;;
6679;SDS011;3376;42.664;23.346;2023-06-22T12:48:25;9.80;;;8.88;;
6679;SDS011;3376;42.664;23.346;2023-06-22T12:50:53;9.13;;;8.73;;
6679;SDS011;3376;42.664;23.346;2023-06-22T12:53:21;8.80;;;8.20;;
6679;SDS011;3376;42.664;23.346;2023-06-22T12:55:48;9.95;;;9.13;;
6679;SDS011;3376;42.664;23.346;2023-06-22T12:58:15;9.27;;;8.50;;
6679;SDS011;3376;42.664;23.346;2023-06-22T13:00:42;9.68;;;9.15;;
6679;SDS011;3376;42.664;23.346;2023-06-22T13:03:09;9.80;;;9.07;;
6679;SDS011;3376;42.664;23.346;2023-06-22T13:05:35;10.00;;;9.40;;
6679;SDS011;3376;42.664;23.346;2023-06-22T13:08:03;10.82;;;9.68;;
6679;SDS011;3376;42.664;23.346;2023-06-22T13:10:31;11.13;;;10.32;;
6679;SDS011;3376;42.664;23.346;2023-06-22T13:12:58;11.05;;;10.07;;
6679;SDS011;3376;42.664;23.346;2023-06-22T13:15:26;10.55;;;9.63;;
6679;SDS011;3376;42.664;23.346;2023-06-22T13:17:53;10.93;;;10.05;;
6679;SDS011;3376;42.664;23.346;2023-06-22T13:20:20;11.75;;;10.63;;
6679;SDS011;3376;42.664;23.346;2023-06-22T13:22:47;12.27;;;11.13;;
6679;SDS011;3376;42.664;23.346;2023-06-22T13:25:14;11.93;;;10.80;;
6679;SDS011;3376;42.664;23.346;2023-06-22T13:27:45;11.93;;;11.30;;
6679;SDS011;3376;42.664;23.346;2023-06-22T13:30:12;12.63;;;11.60;;
6679;SDS011;3376;42.664;23.346;2023-06-22T13:32:39;11.73;;;11.00;;
6679;SDS011;3376;42.664;23.346;2023-06-22T13:35:08;12.13;;;11.60;;
6679;SDS011;3376;42.664;23.346;2023-06-22T13:37:35;11.97;;;11.10;;
6679;SDS011;3376;42.664;23.346;2023-06-22T13:40:02;11.37;;;10.70;;
6679;SDS011;3376;42.664;23.346;2023-06-22T13:42:31;12.43;;;11.63;;
6679;SDS011;3376;42.664;23.346;2023-06-22T13:45:00;12.37;;;11.57;;
6679;SDS011;3376;42.664;23.346;2023-06-22T13:47:26;12.10;;;11.33;;
6679;SDS011;3376;42.664;23.346;2023-06-22T13:49:53;13.60;;;12.50;;
6679;SDS011;3376;42.664;23.346;2023-06-22T13:52:20;12.63;;;11.77;;
6679;SDS011;3376;42.664;23.346;2023-06-22T13:54:48;14.60;;;13.20;;
6679;SDS011;3376;42.664;23.346;2023-06-22T13:57:16;13.27;;;12.27;;
6679;SDS011;3376;42.664;23.346;2023-06-22T13:59:43;13.90;;;12.57;;
6679;SDS011;3376;42.664;23.346;2023-06-22T14:02:11;14.48;;;13.18;;
6679;SDS011;3376;42.664;23.346;2023-06-22T14:04:38;14.43;;;13.02;;
6679;SDS011;3376;42.664;23.346;2023-06-22T14:07:05;11.88;;;11.18;;
6679;SDS011;3376;42.664;23.346;2023-06-22T14:09:32;11.13;;;10.13;;
6679;SDS011;3376;42.664;23.346;2023-06-22T14:12:02;11.63;;;11.02;;
6679;SDS011;3376;42.664;23.346;2023-06-22T14:14:30;11.30;;;10.60;;
6679;SDS011;3376;42.664;23.346;2023-06-22T14:16:56;10.60;;;9.90;;
6679;SDS011;3376;42.664;23.346;2023-06-22T14:19:25;10.70;;;9.90;;
6679;SDS011;3376;42.664;23.346;2023-06-22T14:21:51;10.50;;;9.80;;
6679;SDS011;3376;42.664;23.346;2023-06-22T14:24:18;11.40;;;10.50;;
6679;SDS011;3376;42.664;23.346;2023-06-22T14:26:45;10.90;;;10.20;;
6679;SDS011;3376;42.664;23.346;2023-06-22T14:29:12;11.20;;;10.33;;
6679;SDS011;3376;42.664;23.346;2023-06-22T14:31:38;12.10;;;11.23;;
6679;SDS011;3376;42.664;23.346;2023-06-22T14:34:05;12.70;;;10.93;;
6679;SDS011;3376;42.664;23.346;2023-06-22T14:36:33;15.87;;;11.30;;
6679;SDS011;3376;42.664;23.346;2023-06-22T14:39:00;12.27;;;11.50;;
6679;SDS011;3376;42.664;23.346;2023-06-22T14:41:27;13.07;;;11.83;;
6679;SDS011;3376;42.664;23.346;2023-06-22T14:43:55;13.73;;;11.87;;